sensor_id;sensor_type;location;lat;lon;timestamp;temperature;humidity
66019;HTU21D;52787;51.084;5.816;2024-01-27T00:01:35;5.41;73.81
66019;HTU21D;52787;51.084;5.816;2024-01-27T00:04:01;5.34;73.94
66019;HTU21D;52787;51.084;5.816;2024-01-27T00:06:27;5.31;74.16
66019;HTU21D;52787;51.084;5.816;2024-01-27T00:08:53;5.32;74.42
66019;HTU21D;52787;51.084;5.816;2024-01-27T00:11:19;5.35;74.37
66019;HTU21D;52787;51.084;5.816;2024-01-27T00:13:46;5.33;74.24
66019;HTU21D;52787;51.084;5.816;2024-01-27T00:16:12;5.27;74.38
66019;HTU21D;52787;51.084;5.816;2024-01-27T00:18:38;5.24;74.63
66019;HTU21D;52787;51.084;5.816;2024-01-27T00:21:06;5.23;74.80
66019;HTU21D;52787;51.084;5.816;2024-01-27T00:23:32;5.22;74.81
66019;HTU21D;52787;51.084;5.816;2024-01-27T00:25:58;5.21;74.86
66019;HTU21D;52787;51.084;5.816;2024-01-27T00:28:24;5.18;74.76
66019;HTU21D;52787;51.084;5.816;2024-01-27T00:30:50;5.16;75.02
66019;HTU21D;52787;51.084;5.816;2024-01-27T00:33:16;5.18;74.81
66019;HTU21D;52787;51.084;5.816;2024-01-27T00:35:42;5.18;74.99
66019;HTU21D;52787;51.084;5.816;2024-01-27T00:38:08;5.18;74.78
66019;HTU21D;52787;51.084;5.816;2024-01-27T00:40:34;5.15;74.67
66019;HTU21D;52787;51.084;5.816;2024-01-27T00:42:59;5.08;74.83
66019;HTU21D;52787;51.084;5.816;2024-01-27T00:45:27;5.03;75.03
66019;HTU21D;52787;51.084;5.816;2024-01-27T00:47:58;4.94;75.55
66019;HTU21D;52787;51.084;5.816;2024-01-27T00:50:24;4.95;75.88
66019;HTU21D;52787;51.084;5.816;2024-01-27T00:52:50;4.93;76.02
66019;HTU21D;52787;51.084;5.816;2024-01-27T00:55:16;4.95;75.99
66019;HTU21D;52787;51.084;5.816;2024-01-27T00:57:43;4.96;76.05
66019;HTU21D;52787;51.084;5.816;2024-01-27T01:00:10;4.95;76.13
66019;HTU21D;52787;51.084;5.816;2024-01-27T01:02:37;4.97;76.10
66019;HTU21D;52787;51.084;5.816;2024-01-27T01:05:04;4.96;76.03
66019;HTU21D;52787;51.084;5.816;2024-01-27T01:07:31;4.93;76.22
66019;HTU21D;52787;51.084;5.816;2024-01-27T01:09:57;4.96;76.29
66019;HTU21D;52787;51.084;5.816;2024-01-27T01:12:24;4.98;75.87
66019;HTU21D;52787;51.084;5.816;2024-01-27T01:14:53;4.95;75.92
66019;HTU21D;52787;51.084;5.816;2024-01-27T01:17:19;4.89;76.15
66019;HTU21D;52787;51.084;5.816;2024-01-27T01:19:44;4.86;76.50
66019;HTU21D;52787;51.084;5.816;2024-01-27T01:22:10;4.87;76.62
66019;HTU21D;52787;51.084;5.816;2024-01-27T01:24:36;4.82;76.77
66019;HTU21D;52787;51.084;5.816;2024-01-27T01:27:03;4.87;76.76
66019;HTU21D;52787;51.084;5.816;2024-01-27T01:29:29;4.82;76.82
66019;HTU21D;52787;51.084;5.816;2024-01-27T01:31:55;4.80;76.94
66019;HTU21D;52787;51.084;5.816;2024-01-27T01:34:21;4.82;76.88
66019;HTU21D;52787;51.084;5.816;2024-01-27T01:36:47;4.79;76.89
66019;HTU21D;52787;51.084;5.816;2024-01-27T01:39:13;4.77;77.11
66019;HTU21D;52787;51.084;5.816;2024-01-27T01:41:40;4.73;77.16
66019;HTU21D;52787;51.084;5.816;2024-01-27T01:44:06;4.72;77.35
66019;HTU21D;52787;51.084;5.816;2024-01-27T01:46:32;4.74;77.49
66019;HTU21D;52787;51.084;5.816;2024-01-27T01:48:59;4.74;77.32
66019;HTU21D;52787;51.084;5.816;2024-01-27T01:51:26;4.74;77.27
66019;HTU21D;52787;51.084;5.816;2024-01-27T01:53:58;4.74;77.37
66019;HTU21D;52787;51.084;5.816;2024-01-27T01:56:24;4.75;77.27
66019;HTU21D;52787;51.084;5.816;2024-01-27T01:58:50;4.75;77.30
66019;HTU21D;52787;51.084;5.816;2024-01-27T02:01:19;4.74;77.39
66019;HTU21D;52787;51.084;5.816;2024-01-27T02:03:56;4.76;77.36
66019;HTU21D;52787;51.084;5.816;2024-01-27T02:06:23;4.77;77.33
66019;HTU21D;52787;51.084;5.816;2024-01-27T02:08:49;4.81;77.01
66019;HTU21D;52787;51.084;5.816;2024-01-27T02:11:15;4.80;77.18
66019;HTU21D;52787;51.084;5.816;2024-01-27T02:13:41;4.82;76.92
66019;HTU21D;52787;51.084;5.816;2024-01-27T02:16:08;4.84;76.88
66019;HTU21D;52787;51.084;5.816;2024-01-27T02:18:33;4.83;76.89
66019;HTU21D;52787;51.084;5.816;2024-01-27T02:20:59;4.78;77.13
66019;HTU21D;52787;51.084;5.816;2024-01-27T02:23:25;4.76;77.29
66019;HTU21D;52787;51.084;5.816;2024-01-27T02:25:51;4.75;77.47
66019;HTU21D;52787;51.084;5.816;2024-01-27T02:28:18;4.73;77.69
66019;HTU21D;52787;51.084;5.816;2024-01-27T02:30:43;4.72;77.92
66019;HTU21D;52787;51.084;5.816;2024-01-27T02:33:09;4.72;77.77
66019;HTU21D;52787;51.084;5.816;2024-01-27T02:35:35;4.75;77.80
66019;HTU21D;52787;51.084;5.816;2024-01-27T02:38:01;4.74;77.66
66019;HTU21D;52787;51.084;5.816;2024-01-27T02:40:27;4.75;77.53
66019;HTU21D;52787;51.084;5.816;2024-01-27T02:42:53;4.69;77.60
66019;HTU21D;52787;51.084;5.816;2024-01-27T02:45:19;4.69;77.63
66019;HTU21D;52787;51.084;5.816;2024-01-27T02:47:44;4.65;77.66
66019;HTU21D;52787;51.084;5.816;2024-01-27T02:50:11;4.63;77.85
66019;HTU21D;52787;51.084;5.816;2024-01-27T02:52:37;4.65;77.53
66019;HTU21D;52787;51.084;5.816;2024-01-27T02:55:03;4.65;77.39
66019;HTU21D;52787;51.084;5.816;2024-01-27T02:57:29;4.64;77.30
66019;HTU21D;52787;51.084;5.816;2024-01-27T02:59:56;4.64;77.27
66019;HTU21D;52787;51.084;5.816;2024-01-27T03:02:22;4.61;77.26
66019;HTU21D;52787;51.084;5.816;2024-01-27T03:04:48;4.57;77.32
66019;HTU21D;52787;51.084;5.816;2024-01-27T03:07:14;4.58;77.46
66019;HTU21D;52787;51.084;5.816;2024-01-27T03:09:39;4.57;77.24
66019;HTU21D;52787;51.084;5.816;2024-01-27T03:12:05;4.57;77.44
66019;HTU21D;52787;51.084;5.816;2024-01-27T03:14:31;4.59;77.27
66019;HTU21D;52787;51.084;5.816;2024-01-27T03:16:58;4.59;77.18
66019;HTU21D;52787;51.084;5.816;2024-01-27T03:19:24;4.59;77.09
66019;HTU21D;52787;51.084;5.816;2024-01-27T03:21:49;4.58;77.07
66019;HTU21D;52787;51.084;5.816;2024-01-27T03:24:15;4.53;77.24
66019;HTU21D;52787;51.084;5.816;2024-01-27T03:26:41;4.49;77.47
66019;HTU21D;52787;51.084;5.816;2024-01-27T03:29:06;4.45;77.73
66019;HTU21D;52787;51.084;5.816;2024-01-27T03:31:33;4.43;77.78
66019;HTU21D;52787;51.084;5.816;2024-01-27T03:34:00;4.44;77.79
66019;HTU21D;52787;51.084;5.816;2024-01-27T03:36:27;4.47;77.69
66019;HTU21D;52787;51.084;5.816;2024-01-27T03:38:54;4.46;77.72
66019;HTU21D;52787;51.084;5.816;2024-01-27T03:41:21;4.45;77.76
66019;HTU21D;52787;51.084;5.816;2024-01-27T03:43:47;4.48;77.82
66019;HTU21D;52787;51.084;5.816;2024-01-27T03:46:13;4.51;77.62
66019;HTU21D;52787;51.084;5.816;2024-01-27T03:48:38;4.49;77.53
66019;HTU21D;52787;51.084;5.816;2024-01-27T03:51:04;4.48;77.56
66019;HTU21D;52787;51.084;5.816;2024-01-27T03:53:31;4.43;77.60
66019;HTU21D;52787;51.084;5.816;2024-01-27T03:55:57;4.42;77.57
66019;HTU21D;52787;51.084;5.816;2024-01-27T03:58:31;4.35;77.85
66019;HTU21D;52787;51.084;5.816;2024-01-27T04:00:57;4.31;78.32
66019;HTU21D;52787;51.084;5.816;2024-01-27T04:03:24;4.27;78.66
66019;HTU21D;52787;51.084;5.816;2024-01-27T04:05:50;4.24;78.90
66019;HTU21D;52787;51.084;5.816;2024-01-27T04:08:15;4.22;79.11
66019;HTU21D;52787;51.084;5.816;2024-01-27T04:10:41;4.22;79.17
66019;HTU21D;52787;51.084;5.816;2024-01-27T04:13:07;4.26;79.03
66019;HTU21D;52787;51.084;5.816;2024-01-27T04:15:33;4.27;78.86
66019;HTU21D;52787;51.084;5.816;2024-01-27T04:18:05;4.27;78.91
66019;HTU21D;52787;51.084;5.816;2024-01-27T04:20:37;4.26;78.75
66019;HTU21D;52787;51.084;5.816;2024-01-27T04:23:04;4.28;78.69
66019;HTU21D;52787;51.084;5.816;2024-01-27T04:25:30;4.31;78.46
66019;HTU21D;52787;51.084;5.816;2024-01-27T04:27:55;4.30;78.16
66019;HTU21D;52787;51.084;5.816;2024-01-27T04:30:21;4.28;78.08
66019;HTU21D;52787;51.084;5.816;2024-01-27T04:32:47;4.23;78.15
66019;HTU21D;52787;51.084;5.816;2024-01-27T04:35:17;4.24;78.07
66019;HTU21D;52787;51.084;5.816;2024-01-27T04:37:43;4.22;77.96
66019;HTU21D;52787;51.084;5.816;2024-01-27T04:40:10;4.18;78.11
66019;HTU21D;52787;51.084;5.816;2024-01-27T04:42:38;4.17;78.25
66019;HTU21D;52787;51.084;5.816;2024-01-27T04:45:05;4.12;78.47
66019;HTU21D;52787;51.084;5.816;2024-01-27T04:47:33;4.07;78.79
66019;HTU21D;52787;51.084;5.816;2024-01-27T04:49:58;4.04;78.92
66019;HTU21D;52787;51.084;5.816;2024-01-27T04:52:24;4.02;79.14
66019;HTU21D;52787;51.084;5.816;2024-01-27T04:54:51;4.04;79.06
66019;HTU21D;52787;51.084;5.816;2024-01-27T04:57:17;4.04;78.82
66019;HTU21D;52787;51.084;5.816;2024-01-27T04:59:43;3.99;79.04
66019;HTU21D;52787;51.084;5.816;2024-01-27T05:02:08;3.95;78.99
66019;HTU21D;52787;51.084;5.816;2024-01-27T05:04:34;3.93;79.17
66019;HTU21D;52787;51.084;5.816;2024-01-27T05:07:00;3.91;79.43
66019;HTU21D;52787;51.084;5.816;2024-01-27T05:09:25;3.93;79.40
66019;HTU21D;52787;51.084;5.816;2024-01-27T05:11:51;3.93;79.32
66019;HTU21D;52787;51.084;5.816;2024-01-27T05:14:18;3.92;79.53
66019;HTU21D;52787;51.084;5.816;2024-01-27T05:16:44;3.94;79.45
66019;HTU21D;52787;51.084;5.816;2024-01-27T05:19:10;3.93;79.39
66019;HTU21D;52787;51.084;5.816;2024-01-27T05:21:37;3.94;79.48
66019;HTU21D;52787;51.084;5.816;2024-01-27T05:24:03;3.97;79.33
66019;HTU21D;52787;51.084;5.816;2024-01-27T05:26:29;3.97;79.30
66019;HTU21D;52787;51.084;5.816;2024-01-27T05:28:56;3.97;79.10
66019;HTU21D;52787;51.084;5.816;2024-01-27T05:31:21;3.95;79.11
66019;HTU21D;52787;51.084;5.816;2024-01-27T05:33:47;3.95;79.17
66019;HTU21D;52787;51.084;5.816;2024-01-27T05:36:13;3.94;78.98
66019;HTU21D;52787;51.084;5.816;2024-01-27T05:38:38;3.90;79.21
66019;HTU21D;52787;51.084;5.816;2024-01-27T05:41:04;3.89;79.19
66019;HTU21D;52787;51.084;5.816;2024-01-27T05:43:30;3.90;79.19
66019;HTU21D;52787;51.084;5.816;2024-01-27T05:45:56;3.89;79.14
66019;HTU21D;52787;51.084;5.816;2024-01-27T05:48:22;3.88;79.19
66019;HTU21D;52787;51.084;5.816;2024-01-27T05:50:58;3.89;79.37
66019;HTU21D;52787;51.084;5.816;2024-01-27T05:53:26;3.88;79.27
66019;HTU21D;52787;51.084;5.816;2024-01-27T05:55:52;3.86;79.44
66019;HTU21D;52787;51.084;5.816;2024-01-27T05:58:22;3.89;79.40
66019;HTU21D;52787;51.084;5.816;2024-01-27T06:00:48;3.90;79.23
66019;HTU21D;52787;51.084;5.816;2024-01-27T06:03:14;3.87;79.15
66019;HTU21D;52787;51.084;5.816;2024-01-27T06:05:41;3.83;79.19
66019;HTU21D;52787;51.084;5.816;2024-01-27T06:08:07;3.77;79.35
66019;HTU21D;52787;51.084;5.816;2024-01-27T06:10:33;3.74;79.56
66019;HTU21D;52787;51.084;5.816;2024-01-27T06:13:02;3.75;79.63
66019;HTU21D;52787;51.084;5.816;2024-01-27T06:15:28;3.71;79.77
66019;HTU21D;52787;51.084;5.816;2024-01-27T06:17:54;3.69;79.84
66019;HTU21D;52787;51.084;5.816;2024-01-27T06:20:20;3.62;80.07
66019;HTU21D;52787;51.084;5.816;2024-01-27T06:22:46;3.60;80.25
66019;HTU21D;52787;51.084;5.816;2024-01-27T06:25:12;3.59;80.19
66019;HTU21D;52787;51.084;5.816;2024-01-27T06:27:37;3.58;80.35
66019;HTU21D;52787;51.084;5.816;2024-01-27T06:30:04;3.57;80.39
66019;HTU21D;52787;51.084;5.816;2024-01-27T06:32:31;3.59;80.55
66019;HTU21D;52787;51.084;5.816;2024-01-27T06:34:56;3.59;80.30
66019;HTU21D;52787;51.084;5.816;2024-01-27T06:37:22;3.59;80.36
66019;HTU21D;52787;51.084;5.816;2024-01-27T06:39:48;3.57;80.52
66019;HTU21D;52787;51.084;5.816;2024-01-27T06:42:13;3.55;80.50
66019;HTU21D;52787;51.084;5.816;2024-01-27T06:44:39;3.54;80.68
66019;HTU21D;52787;51.084;5.816;2024-01-27T06:47:05;3.56;80.53
66019;HTU21D;52787;51.084;5.816;2024-01-27T06:49:30;3.56;80.54
66019;HTU21D;52787;51.084;5.816;2024-01-27T06:51:57;3.55;80.57
66019;HTU21D;52787;51.084;5.816;2024-01-27T06:54:22;3.53;80.64
66019;HTU21D;52787;51.084;5.816;2024-01-27T06:56:48;3.49;80.43
66019;HTU21D;52787;51.084;5.816;2024-01-27T06:59:14;3.50;80.68
66019;HTU21D;52787;51.084;5.816;2024-01-27T07:01:48;3.53;80.54
66019;HTU21D;52787;51.084;5.816;2024-01-27T07:04:14;3.55;80.47
66019;HTU21D;52787;51.084;5.816;2024-01-27T07:06:40;3.56;80.55
66019;HTU21D;52787;51.084;5.816;2024-01-27T07:09:06;3.56;80.63
66019;HTU21D;52787;51.084;5.816;2024-01-27T07:11:32;3.54;80.47
66019;HTU21D;52787;51.084;5.816;2024-01-27T07:13:59;3.52;80.59
66019;HTU21D;52787;51.084;5.816;2024-01-27T07:16:25;3.49;80.51
66019;HTU21D;52787;51.084;5.816;2024-01-27T07:18:50;3.52;80.59
66019;HTU21D;52787;51.084;5.816;2024-01-27T07:21:17;3.50;80.70
66019;HTU21D;52787;51.084;5.816;2024-01-27T07:23:43;3.49;80.78
66019;HTU21D;52787;51.084;5.816;2024-01-27T07:26:10;3.47;80.96
66019;HTU21D;52787;51.084;5.816;2024-01-27T07:28:37;3.47;81.16
66019;HTU21D;52787;51.084;5.816;2024-01-27T07:31:03;3.47;81.08
66019;HTU21D;52787;51.084;5.816;2024-01-27T07:33:30;3.43;81.34
66019;HTU21D;52787;51.084;5.816;2024-01-27T07:35:56;3.43;81.48
66019;HTU21D;52787;51.084;5.816;2024-01-27T07:38:22;3.42;81.64
66019;HTU21D;52787;51.084;5.816;2024-01-27T07:40:48;3.43;81.71
66019;HTU21D;52787;51.084;5.816;2024-01-27T07:43:14;3.47;81.92
66019;HTU21D;52787;51.084;5.816;2024-01-27T07:45:39;3.55;81.67
66019;HTU21D;52787;51.084;5.816;2024-01-27T07:48:05;3.57;81.49
66019;HTU21D;52787;51.084;5.816;2024-01-27T07:50:32;3.61;81.10
66019;HTU21D;52787;51.084;5.816;2024-01-27T07:52:58;3.60;80.86
66019;HTU21D;52787;51.084;5.816;2024-01-27T07:55:24;3.63;80.65
66019;HTU21D;52787;51.084;5.816;2024-01-27T07:57:50;3.63;80.49
66019;HTU21D;52787;51.084;5.816;2024-01-27T08:00:16;3.63;80.57
66019;HTU21D;52787;51.084;5.816;2024-01-27T08:02:42;3.62;80.69
66019;HTU21D;52787;51.084;5.816;2024-01-27T08:05:07;3.65;80.59
66019;HTU21D;52787;51.084;5.816;2024-01-27T08:07:34;3.68;80.41
66019;HTU21D;52787;51.084;5.816;2024-01-27T08:09:59;3.72;80.27
66019;HTU21D;52787;51.084;5.816;2024-01-27T08:12:25;3.71;80.35
66019;HTU21D;52787;51.084;5.816;2024-01-27T08:14:52;3.74;80.43
66019;HTU21D;52787;51.084;5.816;2024-01-27T08:17:19;3.79;80.15
66019;HTU21D;52787;51.084;5.816;2024-01-27T08:19:44;3.79;80.14
66019;HTU21D;52787;51.084;5.816;2024-01-27T08:22:10;3.84;80.21
66019;HTU21D;52787;51.084;5.816;2024-01-27T08:24:36;3.87;80.13
66019;HTU21D;52787;51.084;5.816;2024-01-27T08:27:02;3.95;80.07
66019;HTU21D;52787;51.084;5.816;2024-01-27T08:29:27;3.95;79.88
66019;HTU21D;52787;51.084;5.816;2024-01-27T08:31:53;4.02;79.91
66019;HTU21D;52787;51.084;5.816;2024-01-27T08:34:19;4.05;79.48
66019;HTU21D;52787;51.084;5.816;2024-01-27T08:36:44;4.05;79.45
66019;HTU21D;52787;51.084;5.816;2024-01-27T08:39:10;4.06;79.50
66019;HTU21D;52787;51.084;5.816;2024-01-27T08:41:37;4.08;79.62
66019;HTU21D;52787;51.084;5.816;2024-01-27T08:44:03;4.13;79.62
66019;HTU21D;52787;51.084;5.816;2024-01-27T08:46:29;4.18;79.68
66019;HTU21D;52787;51.084;5.816;2024-01-27T08:51:29;4.30;79.34
66019;HTU21D;52787;51.084;5.816;2024-01-27T08:53:55;4.32;78.95
66019;HTU21D;52787;51.084;5.816;2024-01-27T08:56:21;4.35;78.86
66019;HTU21D;52787;51.084;5.816;2024-01-27T08:58:47;4.38;78.88
66019;HTU21D;52787;51.084;5.816;2024-01-27T09:01:13;4.43;78.94
66019;HTU21D;52787;51.084;5.816;2024-01-27T09:03:40;4.50;78.86
66019;HTU21D;52787;51.084;5.816;2024-01-27T09:06:07;4.58;78.59
66019;HTU21D;52787;51.084;5.816;2024-01-27T09:08:35;4.60;78.37
66019;HTU21D;52787;51.084;5.816;2024-01-27T09:11:02;4.59;78.36
66019;HTU21D;52787;51.084;5.816;2024-01-27T09:13:28;4.62;78.59
66019;HTU21D;52787;51.084;5.816;2024-01-27T09:15:56;4.68;78.56
66019;HTU21D;52787;51.084;5.816;2024-01-27T09:18:23;4.73;78.65
66019;HTU21D;52787;51.084;5.816;2024-01-27T09:20:49;4.79;78.58
66019;HTU21D;52787;51.084;5.816;2024-01-27T09:23:15;4.83;78.58
66019;HTU21D;52787;51.084;5.816;2024-01-27T09:25:41;4.88;78.49
66019;HTU21D;52787;51.084;5.816;2024-01-27T09:28:06;4.90;78.31
66019;HTU21D;52787;51.084;5.816;2024-01-27T09:30:32;4.95;78.21
66019;HTU21D;52787;51.084;5.816;2024-01-27T09:32:58;4.98;77.86
66019;HTU21D;52787;51.084;5.816;2024-01-27T09:35:24;5.03;77.74
66019;HTU21D;52787;51.084;5.816;2024-01-27T09:37:49;5.17;77.59
66019;HTU21D;52787;51.084;5.816;2024-01-27T09:40:15;5.32;76.92
66019;HTU21D;52787;51.084;5.816;2024-01-27T09:42:50;5.49;76.43
66019;HTU21D;52787;51.084;5.816;2024-01-27T09:45:19;5.59;75.66
66019;HTU21D;52787;51.084;5.816;2024-01-27T09:47:47;5.64;75.09
66019;HTU21D;52787;51.084;5.816;2024-01-27T09:50:14;5.62;74.47
66019;HTU21D;52787;51.084;5.816;2024-01-27T09:52:40;5.62;74.70
66019;HTU21D;52787;51.084;5.816;2024-01-27T09:55:07;5.62;74.78
66019;HTU21D;52787;51.084;5.816;2024-01-27T09:57:33;5.61;75.10
66019;HTU21D;52787;51.084;5.816;2024-01-27T10:00:01;5.64;75.35
66019;HTU21D;52787;51.084;5.816;2024-01-27T10:02:30;5.76;75.63
66019;HTU21D;52787;51.084;5.816;2024-01-27T10:04:57;5.82;75.37
66019;HTU21D;52787;51.084;5.816;2024-01-27T10:07:24;5.86;75.47
66019;HTU21D;52787;51.084;5.816;2024-01-27T10:09:50;5.97;75.41
66019;HTU21D;52787;51.084;5.816;2024-01-27T10:12:16;6.09;74.61
66019;HTU21D;52787;51.084;5.816;2024-01-27T10:14:43;6.19;74.31
66019;HTU21D;52787;51.084;5.816;2024-01-27T10:17:24;6.31;73.86
66019;HTU21D;52787;51.084;5.816;2024-01-27T10:20:04;6.50;73.42
66019;HTU21D;52787;51.084;5.816;2024-01-27T10:22:38;7.04;71.97
66019;HTU21D;52787;51.084;5.816;2024-01-27T10:25:05;8.18;68.34
66019;HTU21D;52787;51.084;5.816;2024-01-27T10:27:32;10.37;61.90
66019;HTU21D;52787;51.084;5.816;2024-01-27T10:29:58;12.85;53.71
66019;HTU21D;52787;51.084;5.816;2024-01-27T10:32:23;14.86;48.30
66019;HTU21D;52787;51.084;5.816;2024-01-27T10:35:11;16.51;43.00
66019;HTU21D;52787;51.084;5.816;2024-01-27T10:37:39;17.69;40.12
66019;HTU21D;52787;51.084;5.816;2024-01-27T10:40:08;17.52;38.57
66019;HTU21D;52787;51.084;5.816;2024-01-27T10:42:38;16.02;42.12
66019;HTU21D;52787;51.084;5.816;2024-01-27T10:45:05;14.43;45.41
66019;HTU21D;52787;51.084;5.816;2024-01-27T10:47:32;12.97;49.54
66019;HTU21D;52787;51.084;5.816;2024-01-27T10:50:00;11.64;52.89
66019;HTU21D;52787;51.084;5.816;2024-01-27T10:52:30;10.56;56.58
66019;HTU21D;52787;51.084;5.816;2024-01-27T10:55:01;9.90;59.51
66019;HTU21D;52787;51.084;5.816;2024-01-27T10:57:30;9.71;61.15
66019;HTU21D;52787;51.084;5.816;2024-01-27T10:59:57;9.66;61.30
66019;HTU21D;52787;51.084;5.816;2024-01-27T11:02:24;10.10;60.28
66019;HTU21D;52787;51.084;5.816;2024-01-27T11:04:51;10.89;58.13
66019;HTU21D;52787;51.084;5.816;2024-01-27T11:07:20;11.74;55.69
66019;HTU21D;52787;51.084;5.816;2024-01-27T11:09:49;12.40;54.06
66019;HTU21D;52787;51.084;5.816;2024-01-27T11:12:22;12.66;52.46
66019;HTU21D;52787;51.084;5.816;2024-01-27T11:14:49;12.29;52.51
66019;HTU21D;52787;51.084;5.816;2024-01-27T11:17:17;11.66;54.23
66019;HTU21D;52787;51.084;5.816;2024-01-27T11:19:47;11.38;55.72
66019;HTU21D;52787;51.084;5.816;2024-01-27T11:22:27;11.36;56.07
66019;HTU21D;52787;51.084;5.816;2024-01-27T11:25:06;11.70;55.66
66019;HTU21D;52787;51.084;5.816;2024-01-27T11:27:42;12.56;53.53
66019;HTU21D;52787;51.084;5.816;2024-01-27T11:30:30;13.66;49.88
66019;HTU21D;52787;51.084;5.816;2024-01-27T11:33:02;14.35;47.56
66019;HTU21D;52787;51.084;5.816;2024-01-27T11:35:29;14.60;46.54
66019;HTU21D;52787;51.084;5.816;2024-01-27T11:37:55;14.36;46.16
66019;HTU21D;52787;51.084;5.816;2024-01-27T11:40:21;13.85;47.47
66019;HTU21D;52787;51.084;5.816;2024-01-27T11:43:00;13.46;48.66
66019;HTU21D;52787;51.084;5.816;2024-01-27T11:45:28;13.15;49.16
66019;HTU21D;52787;51.084;5.816;2024-01-27T11:47:59;12.89;49.49
66019;HTU21D;52787;51.084;5.816;2024-01-27T11:50:25;12.73;50.16
66019;HTU21D;52787;51.084;5.816;2024-01-27T11:52:51;12.63;50.47
66019;HTU21D;52787;51.084;5.816;2024-01-27T11:55:17;12.65;50.73
66019;HTU21D;52787;51.084;5.816;2024-01-27T11:57:45;12.87;50.14
66019;HTU21D;52787;51.084;5.816;2024-01-27T12:00:11;13.23;49.56
66019;HTU21D;52787;51.084;5.816;2024-01-27T12:02:38;13.77;47.65
66019;HTU21D;52787;51.084;5.816;2024-01-27T12:05:08;14.41;46.51
66019;HTU21D;52787;51.084;5.816;2024-01-27T12:07:35;15.01;44.46
66019;HTU21D;52787;51.084;5.816;2024-01-27T12:10:01;15.46;43.19
66019;HTU21D;52787;51.084;5.816;2024-01-27T12:12:27;15.91;42.24
66019;HTU21D;52787;51.084;5.816;2024-01-27T12:14:53;16.31;40.16
66019;HTU21D;52787;51.084;5.816;2024-01-27T12:17:21;16.43;40.30
66019;HTU21D;52787;51.084;5.816;2024-01-27T12:19:49;16.69;39.48
66019;HTU21D;52787;51.084;5.816;2024-01-27T12:22:24;16.85;38.90
66019;HTU21D;52787;51.084;5.816;2024-01-27T12:24:54;16.75;37.95
66019;HTU21D;52787;51.084;5.816;2024-01-27T12:27:22;16.32;38.68
66019;HTU21D;52787;51.084;5.816;2024-01-27T12:29:49;15.80;40.19
66019;HTU21D;52787;51.084;5.816;2024-01-27T12:32:16;15.32;41.17
66019;HTU21D;52787;51.084;5.816;2024-01-27T12:34:43;14.80;42.81
66019;HTU21D;52787;51.084;5.816;2024-01-27T12:37:11;14.38;43.58
66019;HTU21D;52787;51.084;5.816;2024-01-27T12:39:42;13.92;44.38
66019;HTU21D;52787;51.084;5.816;2024-01-27T12:42:09;13.51;45.86
66019;HTU21D;52787;51.084;5.816;2024-01-27T12:44:35;13.31;46.95
66019;HTU21D;52787;51.084;5.816;2024-01-27T12:47:01;13.33;46.70
66019;HTU21D;52787;51.084;5.816;2024-01-27T12:49:27;13.31;46.47
66019;HTU21D;52787;51.084;5.816;2024-01-27T12:51:52;13.32;46.89
66019;HTU21D;52787;51.084;5.816;2024-01-27T12:54:18;13.50;47.90
66019;HTU21D;52787;51.084;5.816;2024-01-27T12:56:44;14.11;46.10
66019;HTU21D;52787;51.084;5.816;2024-01-27T12:59:10;14.67;44.00
66019;HTU21D;52787;51.084;5.816;2024-01-27T13:01:36;15.43;42.58
66019;HTU21D;52787;51.084;5.816;2024-01-27T13:04:02;16.29;40.33
66019;HTU21D;52787;51.084;5.816;2024-01-27T13:06:28;17.11;38.82
66019;HTU21D;52787;51.084;5.816;2024-01-27T13:08:54;18.19;36.24
66019;HTU21D;52787;51.084;5.816;2024-01-27T13:11:20;19.01;34.80
66019;HTU21D;52787;51.084;5.816;2024-01-27T13:13:46;19.59;33.21
66019;HTU21D;52787;51.084;5.816;2024-01-27T13:16:12;20.02;31.93
66019;HTU21D;52787;51.084;5.816;2024-01-27T13:18:37;20.27;31.45
66019;HTU21D;52787;51.084;5.816;2024-01-27T13:21:03;20.83;30.99
66019;HTU21D;52787;51.084;5.816;2024-01-27T13:23:32;21.67;28.97
66019;HTU21D;52787;51.084;5.816;2024-01-27T13:25:58;22.21;27.47
66019;HTU21D;52787;51.084;5.816;2024-01-27T13:28:24;22.18;26.61
66019;HTU21D;52787;51.084;5.816;2024-01-27T13:30:50;21.02;28.34
66019;HTU21D;52787;51.084;5.816;2024-01-27T13:33:16;19.45;31.48
66019;HTU21D;52787;51.084;5.816;2024-01-27T13:35:42;18.67;33.49
66019;HTU21D;52787;51.084;5.816;2024-01-27T13:38:14;18.51;32.89
66019;HTU21D;52787;51.084;5.816;2024-01-27T13:40:43;18.13;33.72
66019;HTU21D;52787;51.084;5.816;2024-01-27T13:43:09;17.63;34.71
66019;HTU21D;52787;51.084;5.816;2024-01-27T13:45:35;17.26;35.44
66019;HTU21D;52787;51.084;5.816;2024-01-27T13:48:01;16.79;36.24
66019;HTU21D;52787;51.084;5.816;2024-01-27T13:50:27;16.32;37.19
66019;HTU21D;52787;51.084;5.816;2024-01-27T13:52:56;16.11;38.03
66019;HTU21D;52787;51.084;5.816;2024-01-27T13:55:22;15.78;38.12
66019;HTU21D;52787;51.084;5.816;2024-01-27T13:57:48;15.38;39.13
66019;HTU21D;52787;51.084;5.816;2024-01-27T14:00:15;15.36;40.30
66019;HTU21D;52787;51.084;5.816;2024-01-27T14:02:42;15.62;39.90
66019;HTU21D;52787;51.084;5.816;2024-01-27T14:05:08;15.70;39.46
66019;HTU21D;52787;51.084;5.816;2024-01-27T14:07:35;15.41;39.78
66019;HTU21D;52787;51.084;5.816;2024-01-27T14:10:01;15.07;40.17
66019;HTU21D;52787;51.084;5.816;2024-01-27T14:12:27;14.68;41.29
66019;HTU21D;52787;51.084;5.816;2024-01-27T14:15:02;14.49;41.82
66019;HTU21D;52787;51.084;5.816;2024-01-27T14:17:36;14.39;41.91
66019;HTU21D;52787;51.084;5.816;2024-01-27T14:20:02;14.27;42.32
66019;HTU21D;52787;51.084;5.816;2024-01-27T14:22:29;14.33;42.48
66019;HTU21D;52787;51.084;5.816;2024-01-27T14:24:55;14.25;42.58
66019;HTU21D;52787;51.084;5.816;2024-01-27T14:27:22;14.14;43.42
66019;HTU21D;52787;51.084;5.816;2024-01-27T14:29:54;14.11;43.75
66019;HTU21D;52787;51.084;5.816;2024-01-27T14:32:22;13.90;44.32
66019;HTU21D;52787;51.084;5.816;2024-01-27T14:34:48;13.77;44.76
66019;HTU21D;52787;51.084;5.816;2024-01-27T14:37:15;13.74;45.64
66019;HTU21D;52787;51.084;5.816;2024-01-27T14:39:48;13.76;45.09
66019;HTU21D;52787;51.084;5.816;2024-01-27T14:42:15;13.61;44.99
66019;HTU21D;52787;51.084;5.816;2024-01-27T14:44:44;13.37;45.94
66019;HTU21D;52787;51.084;5.816;2024-01-27T14:47:15;13.26;46.75
66019;HTU21D;52787;51.084;5.816;2024-01-27T14:49:41;13.14;46.98
66019;HTU21D;52787;51.084;5.816;2024-01-27T14:52:09;12.97;47.68
66019;HTU21D;52787;51.084;5.816;2024-01-27T14:54:36;12.81;47.98
66019;HTU21D;52787;51.084;5.816;2024-01-27T14:57:03;12.64;48.28
66019;HTU21D;52787;51.084;5.816;2024-01-27T14:59:30;12.46;48.60
66019;HTU21D;52787;51.084;5.816;2024-01-27T15:01:56;12.33;49.28
66019;HTU21D;52787;51.084;5.816;2024-01-27T15:04:23;12.20;49.60
66019;HTU21D;52787;51.084;5.816;2024-01-27T15:06:53;12.06;50.02
66019;HTU21D;52787;51.084;5.816;2024-01-27T15:09:20;11.94;50.88
66019;HTU21D;52787;51.084;5.816;2024-01-27T15:11:47;11.88;51.02
66019;HTU21D;52787;51.084;5.816;2024-01-27T15:14:14;11.81;50.92
66019;HTU21D;52787;51.084;5.816;2024-01-27T15:16:40;11.68;51.30
66019;HTU21D;52787;51.084;5.816;2024-01-27T15:19:05;11.64;51.72
66019;HTU21D;52787;51.084;5.816;2024-01-27T15:21:32;11.58;51.88
66019;HTU21D;52787;51.084;5.816;2024-01-27T15:23:58;11.54;52.19
66019;HTU21D;52787;51.084;5.816;2024-01-27T15:26:24;11.49;52.82